Time;durP1;ratioP1;P1;durP2;ratioP2;P2;SDS_P1;SDS_P2;PMS_P1;PMS_P2;Temp;Humidity;BMP_temperature;BMP_pressure;BME280_temperature;BME280_humidity;BME280_pressure;Samples;Min_cycle;Max_cycle;Signal;HPM_P1;HPM_P2
2022/08/13 00:00:37;;;;;;;2.08;1.83;;;;;;;11.23;93.93;93108.31;2131534;27;20041;-72
2022/08/13 00:01:40;;;;;;;1.63;1.50;;;;;;;11.25;93.58;93105.25;2131653;27;20090;-71
2022/08/13 00:02:42;;;;;;;2.83;1.75;;;;;;;11.29;93.38;93103.97;2131792;27;20038;-70
2022/08/13 00:03:44;;;;;;;1.45;1.35;;;;;;;11.25;93.22;93108.66;2131611;27;20029;-70
2022/08/13 00:04:59;;;;;;;3.13;1.67;;;;;;;11.18;95.13;93100.06;2131111;27;20034;-71
2022/08/13 00:06:04;;;;;;;3.00;1.63;;;;;;;11.09;95.25;93114.78;2128673;27;20658;-70
2022/08/13 00:08:06;;;;;;;3.38;1.70;;;;;;;11.23;94.38;93100.28;2131845;27;20034;-72
2022/08/13 00:09:10;;;;;;;1.92;1.55;;;;;;;11.26;94.17;93104.06;2131240;27;20019;-73
2022/08/13 00:10:14;;;;;;;4.25;1.60;;;;;;;11.17;93.91;93090.53;2131757;27;20472;-70
2022/08/13 00:12:56;;;;;;;2.47;1.40;;;;;;;11.02;96.17;93098.91;2131654;27;20082;-72
2022/08/13 00:12:59;;;;;;;2.08;1.50;;;;;;;11.07;96.52;93094.97;2131747;27;20034;-70
2022/08/13 00:14:04;;;;;;;2.25;1.60;;;;;;;10.97;97.35;93093.28;2128678;27;20101;-70
2022/08/13 00:15:16;;;;;;;1.98;1.77;;;;;;;10.97;97.25;93102.06;2130655;27;20749;-70
2022/08/13 00:16:17;;;;;;;1.63;1.50;;;;;;;10.86;98.55;93098.16;2122170;27;20023;-69
2022/08/13 00:17:19;;;;;;;1.90;1.40;;;;;;;10.83;98.07;93092.44;2122397;27;20055;-69
2022/08/13 00:18:23;;;;;;;2.30;1.50;;;;;;;10.97;97.53;93098.63;2131609;27;20018;-71
2022/08/13 00:19:30;;;;;;;4.88;1.77;;;;;;;10.94;97.78;93100.25;2127633;27;20355;-73
2022/08/13 00:20:43;;;;;;;4.82;1.50;;;;;;;10.91;97.47;93098.41;2131007;27;20034;-71
2022/08/13 00:21:46;;;;;;;1.60;1.50;;;;;;;10.78;98.65;93098.31;2131302;27;20098;-70
2022/08/13 00:22:48;;;;;;;3.53;1.60;;;;;;;10.86;97.90;93103.50;2131516;27;20026;-70
2022/08/13 00:23:55;;;;;;;5.03;1.50;;;;;;;10.77;99.02;93102.16;2131523;27;20030;-72
2022/08/13 00:24:57;;;;;;;1.67;1.50;;;;;;;10.86;98.44;93098.91;2127854;27;20026;-69
2022/08/13 00:25:58;;;;;;;2.75;1.50;;;;;;;10.83;98.46;93091.69;2130853;27;20720;-70
2022/08/13 00:27:01;;;;;;;1.95;1.60;;;;;;;10.77;98.36;93096.81;2131405;27;20019;-71
2022/08/13 00:28:04;;;;;;;3.75;1.52;;;;;;;10.68;98.91;93095.88;2131473;27;20031;-70
2022/08/13 00:29:06;;;;;;;1.50;1.40;;;;;;;10.82;98.47;93092.88;2131676;27;20022;-70
2022/08/13 00:30:11;;;;;;;1.98;1.20;;;;;;;10.60;99.84;93095.28;2131397;27;20026;-69
2022/08/13 00:31:12;;;;;;;3.28;1.58;;;;;;;10.67;98.99;93099.69;2128289;27;20030;-70
2022/08/13 00:32:14;;;;;;;1.92;1.45;;;;;;;10.62;99.92;93100.19;2130275;27;20098;-70
2022/08/13 00:33:19;;;;;;;3.25;1.60;;;;;;;10.53;100.00;93100.78;2131655;27;20097;-70
2022/08/13 00:34:20;;;;;;;3.78;1.90;;;;;;;10.45;100.00;93089.50;2131532;27;20368;-69
2022/08/13 00:35:21;;;;;;;1.77;1.50;;;;;;;10.53;100.00;93096.19;2127260;27;20030;-70
2022/08/13 00:36:23;;;;;;;2.35;1.52;;;;;;;10.49;100.00;93094.75;2131333;27;20027;-75
2022/08/13 00:37:26;;;;;;;2.58;1.65;;;;;;;10.59;100.00;93097.19;2130568;27;20034;-70
2022/08/13 00:38:29;;;;;;;1.70;1.60;;;;;;;10.52;100.00;93101.94;2131375;27;20085;-71
2022/08/13 00:39:30;;;;;;;1.85;1.50;;;;;;;10.46;100.00;93093.69;2131361;27;20027;-70
2022/08/13 00:40:33;;;;;;;2.83;1.77;;;;;;;10.43;100.00;93096.41;2131461;27;20022;-70
2022/08/13 00:41:42;;;;;;;1.83;1.60;;;;;;;10.43;100.00;93105.19;2131300;27;20027;-71
2022/08/13 00:42:43;;;;;;;2.13;1.52;;;;;;;10.39;100.00;93096.50;2130469;27;20083;-70
2022/08/13 00:43:44;;;;;;;1.67;1.58;;;;;;;10.38;100.00;93100.34;2122353;27;20034;-71
2022/08/13 00:44:45;;;;;;;1.65;1.55;;;;;;;10.30;100.00;93097.06;2122362;27;20015;-70
2022/08/13 00:45:46;;;;;;;2.08;1.98;;;;;;;10.30;100.00;93091.72;2131501;27;20026;-69
2022/08/13 00:46:49;;;;;;;1.80;1.50;;;;;;;10.33;100.00;93093.56;2131447;27;20468;-71
2022/08/13 00:49:12;;;;;;;1.80;1.55;;;;;;;10.33;100.00;93085.53;2129695;27;20046;-69
2022/08/13 00:50:13;;;;;;;3.42;1.70;;;;;;;10.36;100.00;93091.22;2131185;27;20038;-70
2022/08/13 00:51:16;;;;;;;2.63;1.95;;;;;;;10.31;100.00;93087.88;2131374;27;20029;-70
2022/08/13 00:52:17;;;;;;;3.58;2.45;;;;;;;10.43;100.00;93080.38;2131079;27;20093;-69
2022/08/13 00:53:19;;;;;;;1.90;1.73;;;;;;;10.31;100.00;93087.13;2130490;27;20087;-71
2022/08/13 00:54:20;;;;;;;3.13;1.83;;;;;;;10.28;100.00;93082.63;2130757;27;20034;-69
2022/08/13 00:55:23;;;;;;;1.70;1.60;;;;;;;10.17;100.00;93085.47;2126410;27;20023;-70
2022/08/13 00:56:25;;;;;;;2.47;1.70;;;;;;;10.14;100.00;93085.53;2131152;27;20030;-69
2022/08/13 00:57:28;;;;;;;2.50;1.90;;;;;;;10.18;100.00;93084.28;2131081;27;20055;-70
2022/08/13 00:58:29;;;;;;;1.70;1.60;;;;;;;10.21;100.00;93080.81;2130593;27;20054;-70
2022/08/13 00:59:30;;;;;;;1.95;1.83;;;;;;;10.16;100.00;93083.97;2131104;27;20448;-70
2022/08/13 01:00:31;;;;;;;1.70;1.60;;;;;;;10.09;100.00;93090.19;2131125;27;20041;-70
2022/08/13 01:01:32;;;;;;;1.95;1.63;;;;;;;10.09;100.00;93089.44;2131175;27;20435;-70
2022/08/13 01:02:33;;;;;;;1.70;1.60;;;;;;;10.13;100.00;93079.44;2131163;27;20372;-72
2022/08/13 01:03:36;;;;;;;1.75;1.48;;;;;;;10.11;100.00;93094.41;2130281;27;20029;-70
2022/08/13 01:04:39;;;;;;;1.73;1.63;;;;;;;9.99;100.00;93088.50;2129181;27;20037;-70
2022/08/13 01:05:45;;;;;;;7.18;1.92;;;;;;;10.12;100.00;93085.97;2131085;27;20018;-70
2022/08/13 01:06:47;;;;;;;3.10;1.95;;;;;;;10.01;100.00;93088.09;2131072;27;20038;-71
2022/08/13 01:07:49;;;;;;;1.88;1.77;;;;;;;9.97;100.00;93085.50;2130974;27;20019;-70
2022/08/13 01:08:52;;;;;;;1.85;1.65;;;;;;;9.99;100.00;93090.44;2130308;27;20018;-70
2022/08/13 01:09:53;;;;;;;2.03;1.67;;;;;;;9.94;100.00;93091.66;2127150;27;20083;-70
2022/08/13 01:10:56;;;;;;;2.53;1.83;;;;;;;9.97;100.00;93090.09;2131068;27;20477;-70
2022/08/13 01:12:01;;;;;;;2.63;1.83;;;;;;;9.95;100.00;93093.16;2131153;27;20022;-70
2022/08/13 01:13:03;;;;;;;2.67;1.98;;;;;;;9.95;100.00;93084.41;2130903;27;20410;-69
2022/08/13 01:14:07;;;;;;;2.08;1.80;;;;;;;9.94;100.00;93090.91;2120879;27;20062;-70
2022/08/13 01:15:13;;;;;;;1.95;1.83;;;;;;;9.79;100.00;93099.19;2121480;27;20120;-72
2022/08/13 01:16:14;;;;;;;2.13;1.65;;;;;;;9.83;100.00;93089.22;2122524;27;20107;-70
2022/08/13 01:17:22;;;;;;;2.40;1.98;;;;;;;9.89;100.00;93089.47;2122587;27;20846;-71
2022/08/13 01:18:24;;;;;;;2.33;1.77;;;;;;;9.88;100.00;93095.22;2118492;27;20476;-71
2022/08/13 01:19:25;;;;;;;2.63;1.70;;;;;;;9.81;100.00;93093.44;2121826;27;20023;-69
2022/08/13 01:20:27;;;;;;;2.95;1.85;;;;;;;9.67;100.00;93096.38;2122472;27;20062;-70
2022/08/13 01:21:42;;;;;;;1.98;1.77;;;;;;;9.79;100.00;93093.13;2122447;27;20132;-70
2022/08/13 01:22:44;;;;;;;1.70;1.60;;;;;;;9.90;100.00;93090.22;2122489;27;20173;-70
2022/08/13 01:23:48;;;;;;;2.03;1.92;;;;;;;9.84;100.00;93104.06;2122244;27;20361;-69
2022/08/13 01:24:50;;;;;;;1.80;1.70;;;;;;;9.63;100.00;93095.69;2121661;27;20077;-69
2022/08/13 01:25:54;;;;;;;3.45;2.05;;;;;;;9.77;100.00;93093.50;2118338;27;20034;-69
2022/08/13 01:26:57;;;;;;;2.00;1.83;;;;;;;9.90;100.00;93098.22;2122367;27;20498;-69
2022/08/13 01:27:59;;;;;;;2.53;2.10;;;;;;;9.90;100.00;93090.97;2122422;27;20027;-70
2022/08/13 01:29:04;;;;;;;2.10;1.83;;;;;;;10.01;100.00;93091.53;2122159;27;20084;-70
2022/08/13 01:30:09;;;;;;;2.25;2.03;;;;;;;10.02;100.00;93094.94;2121663;27;20023;-73
2022/08/13 01:31:13;;;;;;;2.38;2.15;;;;;;;10.17;100.00;93087.38;2120857;27;20393;-69
2022/08/13 01:32:16;;;;;;;2.10;2.00;;;;;;;10.14;100.00;93083.66;2122350;27;20030;-70
2022/08/13 01:33:17;;;;;;;2.90;1.80;;;;;;;10.17;100.00;93084.72;2122483;27;20024;-69
2022/08/13 01:34:19;;;;;;;2.70;1.80;;;;;;;10.06;100.00;93085.69;2122249;27;20022;-70
2022/08/13 01:35:22;;;;;;;1.92;1.73;;;;;;;10.15;100.00;93081.72;2121340;27;20038;-70
2022/08/13 01:36:24;;;;;;;2.90;2.00;;;;;;;10.01;100.00;93082.78;2118542;27;20027;-70
2022/08/13 01:37:25;;;;;;;2.53;1.92;;;;;;;10.04;100.00;93081.94;2122275;27;20050;-70
2022/08/13 01:38:26;;;;;;;2.30;2.10;;;;;;;10.04;100.00;93079.25;2122155;27;20376;-70
2022/08/13 01:39:28;;;;;;;3.90;2.20;;;;;;;9.90;100.00;93076.88;2122099;27;20343;-70
2022/08/13 01:40:30;;;;;;;2.72;2.17;;;;;;;9.99;100.00;93074.41;2121915;27;20106;-70
2022/08/13 01:41:33;;;;;;;3.38;2.05;;;;;;;9.95;100.00;93074.47;2119499;27;20023;-69
2022/08/13 01:42:40;;;;;;;2.50;2.30;;;;;;;9.90;100.00;93071.53;2122291;27;20027;-69
2022/08/13 01:43:42;;;;;;;3.45;2.10;;;;;;;9.90;100.00;93068.88;2122352;27;20125;-69
2022/08/13 01:44:45;;;;;;;2.15;1.95;;;;;;;9.84;100.00;93074.69;2122131;27;20506;-70
2022/08/13 01:45:48;;;;;;;2.50;2.30;;;;;;;9.79;100.00;93071.75;2121661;27;20026;-71
2022/08/13 01:50:49;;;;;;;2.22;2.03;;;;;;;9.72;100.00;93066.53;2122226;27;20026;-70
2022/08/13 01:51:51;;;;;;;3.58;2.15;;;;;;;9.68;100.00;93066.59;2121327;27;20027;-69
2022/08/13 01:52:53;;;;;;;2.38;2.17;;;;;;;9.82;100.00;93060.25;2118059;27;20031;-68
2022/08/13 01:53:59;;;;;;;3.78;2.30;;;;;;;9.68;100.00;93063.19;2122173;27;20027;-70
2022/08/13 01:55:01;;;;;;;3.60;2.53;;;;;;;9.62;100.00;93057.59;2121985;27;20023;-70
2022/08/13 01:56:03;;;;;;;2.38;2.17;;;;;;;9.70;100.00;93060.84;2122075;27;20364;-70
2022/08/13 01:57:07;;;;;;;2.78;2.28;;;;;;;9.46;100.00;93058.25;2119738;27;20050;-72
2022/08/13 01:58:18;;;;;;;2.35;2.15;;;;;;;9.38;100.00;93062.22;2122284;27;20034;-69
2022/08/13 01:59:19;;;;;;;4.80;2.28;;;;;;;9.41;100.00;93058.72;2122066;27;20019;-69
2022/08/13 02:00:23;;;;;;;2.75;2.15;;;;;;;9.45;100.00;93067.44;2121920;27;20019;-70
2022/08/13 02:01:25;;;;;;;2.40;2.25;;;;;;;9.37;100.00;93058.03;2117556;27;20027;-70
2022/08/13 02:02:27;;;;;;;2.80;2.10;;;;;;;9.42;100.00;93054.16;2121077;27;20050;-72
2022/08/13 02:03:30;;;;;;;3.53;2.35;;;;;;;9.32;100.00;93053.19;2122324;27;20365;-68
2022/08/13 02:04:32;;;;;;;2.85;1.92;;;;;;;9.21;100.00;93056.03;2122219;27;20022;-72
2022/08/13 02:05:33;;;;;;;4.20;2.55;;;;;;;9.34;100.00;93054.25;2121972;27;20045;-69
2022/08/13 02:06:34;;;;;;;3.00;2.10;;;;;;;9.35;100.00;93052.38;2121972;27;20050;-70
2022/08/13 02:07:38;;;;;;;4.28;2.30;;;;;;;9.33;100.00;93050.09;2120713;27;20027;-69
2022/08/13 02:08:40;;;;;;;3.28;2.35;;;;;;;9.24;100.00;93060.56;2121573;27;20481;-70
2022/08/13 02:09:43;;;;;;;2.83;2.45;;;;;;;9.33;100.00;93055.44;2122078;27;20465;-70
2022/08/13 02:10:45;;;;;;;3.70;2.63;;;;;;;9.26;100.00;93050.25;2122091;27;20035;-70
2022/08/13 02:11:46;;;;;;;2.42;2.22;;;;;;;9.24;100.00;93049.88;2121952;27;20574;-70
2022/08/13 02:14:54;;;;;;;;;;;;;;;9.24;100.00;93054.47;2146712;27;20542;-70
2022/08/13 02:15:55;;;;;;;5.03;2.50;;;;;;;9.12;100.00;93053.13;2128894;27;19915;-68
2022/08/13 02:16:56;;;;;;;2.55;2.35;;;;;;;9.19;100.00;93054.94;2129008;27;20019;-70
2022/08/13 02:17:59;;;;;;;2.63;2.42;;;;;;;9.20;100.00;93054.53;2137605;27;20094;-69
2022/08/13 02:19:02;;;;;;;3.08;2.50;;;;;;;9.08;100.00;93045.19;2138164;27;20018;-69
2022/08/13 02:20:03;;;;;;;3.08;2.38;;;;;;;9.02;100.00;93049.50;2138003;27;20028;-68
2022/08/13 02:21:04;;;;;;;2.25;2.05;;;;;;;9.05;100.00;93050.63;2138072;27;20018;-68
2022/08/13 02:22:05;;;;;;;3.70;2.33;;;;;;;9.02;100.00;93048.75;2138412;27;20030;-71
2022/08/13 02:23:06;;;;;;;4.65;2.35;;;;;;;9.06;100.00;93044.88;2137438;27;20019;-69
2022/08/13 02:24:13;;;;;;;2.83;2.63;;;;;;;9.22;100.00;93056.78;2138535;27;20050;-68
2022/08/13 02:25:16;;;;;;;3.95;2.47;;;;;;;9.06;100.00;93052.13;2138418;27;20106;-70
2022/08/13 02:26:19;;;;;;;3.45;2.30;;;;;;;9.07;100.00;93043.69;2138253;27;20022;-69
2022/08/13 02:27:22;;;;;;;3.03;2.72;;;;;;;9.06;100.00;93046.78;2138158;27;20027;-67
2022/08/13 02:28:23;;;;;;;2.42;2.22;;;;;;;9.18;100.00;93062.19;2133357;27;20027;-68
2022/08/13 02:29:24;;;;;;;5.10;2.65;;;;;;;9.23;100.00;93051.06;2138079;27;20026;-72
2022/08/13 02:30:28;;;;;;;3.55;2.80;;;;;;;9.13;100.00;93043.22;2137866;27;20030;-69
2022/08/13 02:31:31;;;;;;;2.78;2.47;;;;;;;9.14;100.00;93050.09;2138008;27;20023;-68
2022/08/13 02:32:34;;;;;;;3.55;2.70;;;;;;;8.96;100.00;93045.81;2138081;27;20034;-73
2022/08/13 02:33:37;;;;;;;3.45;2.40;;;;;;;8.98;100.00;93046.13;2128203;27;20118;-68
2022/08/13 02:34:39;;;;;;;4.88;2.47;;;;;;;9.00;100.00;93046.50;2129145;27;20471;-69
2022/08/13 02:35:43;;;;;;;2.63;2.40;;;;;;;8.98;100.00;93042.72;2137787;27;20030;-73
2022/08/13 02:36:47;;;;;;;8.90;2.90;;;;;;;8.87;100.00;93042.91;2137955;27;20027;-69
2022/08/13 02:37:48;;;;;;;3.17;2.88;;;;;;;8.96;100.00;93040.47;2137999;27;20022;-68
2022/08/13 02:38:58;;;;;;;3.25;2.65;;;;;;;9.00;100.00;93045.72;2137232;27;20026;-71
2022/08/13 02:40:01;;;;;;;2.95;2.70;;;;;;;9.06;100.00;93046.78;2134974;27;20061;-70
2022/08/13 02:42:22;;;;;;;3.05;2.65;;;;;;;8.93;100.00;93043.94;2133950;27;20031;-68
2022/08/13 02:43:24;;;;;;;2.85;2.60;;;;;;;9.02;100.00;93051.41;2137886;27;20424;-70
2022/08/13 02:44:27;;;;;;;3.08;2.88;;;;;;;9.07;100.00;93043.69;2133408;27;20019;-69
2022/08/13 02:45:28;;;;;;;5.45;2.80;;;;;;;9.24;100.00;93049.13;2137865;27;20068;-69
2022/08/13 02:46:29;;;;;;;3.15;2.85;;;;;;;9.06;100.00;93049.44;2137785;27;20070;-68
2022/08/13 02:47:32;;;;;;;3.67;2.67;;;;;;;8.95;100.00;93043.53;2137874;27;20409;-68
2022/08/13 02:48:33;;;;;;;3.40;2.70;;;;;;;8.97;100.00;93047.31;2137974;27;20019;-68
2022/08/13 02:49:36;;;;;;;5.95;2.97;;;;;;;8.88;100.00;93052.41;2137196;27;20106;-68
2022/08/13 02:50:42;;;;;;;4.53;2.70;;;;;;;8.98;100.00;93054.13;2137816;27;20137;-71
2022/08/13 02:51:43;;;;;;;3.15;2.88;;;;;;;8.99;100.00;93050.31;2137682;27;20054;-68
2022/08/13 02:52:44;;;;;;;2.75;2.55;;;;;;;9.01;100.00;93044.59;2128724;27;20031;-69
2022/08/13 02:53:46;;;;;;;3.42;2.95;;;;;;;8.86;100.00;93051.28;2128679;27;20023;-70
2022/08/13 02:54:49;;;;;;;3.65;2.42;;;;;;;8.87;100.00;93045.59;2136997;27;20078;-69
2022/08/13 02:55:51;;;;;;;3.58;3.00;;;;;;;8.92;100.00;93049.69;2137816;27;20034;-68
2022/08/13 02:56:52;;;;;;;4.70;2.90;;;;;;;8.91;100.00;93048.16;2133474;27;20109;-69
2022/08/13 02:57:53;;;;;;;2.95;2.67;;;;;;;8.89;100.00;93045.91;2137765;27;20018;-68
2022/08/13 02:58:56;;;;;;;5.45;3.15;;;;;;;8.92;100.00;93047.78;2137800;27;20448;-70
2022/08/13 02:59:56;;;;;;;3.35;3.05;;;;;;;8.99;100.00;93041.56;2136945;27;20105;-68
2022/08/13 03:01:00;;;;;;;3.20;2.97;;;;;;;8.93;100.00;93051.94;2137911;27;20022;-71
2022/08/13 03:02:04;;;;;;;6.78;2.90;;;;;;;8.93;100.00;93051.94;2137659;27;20110;-71
2022/08/13 03:03:05;;;;;;;6.32;3.22;;;;;;;8.95;100.00;93054.94;2137837;27;20467;-72
2022/08/13 03:04:07;;;;;;;4.05;2.80;;;;;;;8.98;100.00;93056.81;2137801;27;20026;-71
2022/08/13 03:05:09;;;;;;;3.10;2.80;;;;;;;8.93;100.00;93056.53;2137062;27;20616;-70
2022/08/13 03:06:10;;;;;;;3.78;3.35;;;;;;;8.86;100.00;93054.72;2137782;27;20082;-68
2022/08/13 03:07:11;;;;;;;3.17;2.88;;;;;;;8.85;100.00;93050.53;2137627;27;20087;-71
2022/08/13 03:08:13;;;;;;;5.43;3.03;;;;;;;8.84;100.00;93057.03;2137666;27;20026;-69
2022/08/13 03:09:14;;;;;;;5.93;2.95;;;;;;;8.90;100.00;93060.00;2137587;27;20074;-69
2022/08/13 03:10:18;;;;;;;5.50;3.40;;;;;;;8.86;100.00;93057.38;2133650;27;20106;-71
2022/08/13 03:11:19;;;;;;;3.25;2.95;;;;;;;8.89;100.00;93059.25;2137418;27;20030;-68
2022/08/13 03:12:21;;;;;;;3.17;2.88;;;;;;;8.82;100.00;93062.00;2137723;27;20023;-68
2022/08/13 03:13:25;;;;;;;3.25;3.03;;;;;;;8.66;100.00;93060.00;2133566;27;20086;-70
2022/08/13 03:14:31;;;;;;;3.25;2.90;;;;;;;8.59;100.00;93065.41;2137441;27;20506;-69
2022/08/13 03:15:32;;;;;;;5.13;3.30;;;;;;;8.77;100.00;93071.22;2137476;27;20036;-70
2022/08/13 03:16:33;;;;;;;3.30;3.00;;;;;;;8.72;100.00;93079.69;2137621;27;20022;-70
2022/08/13 03:17:34;;;;;;;3.38;3.08;;;;;;;8.73;100.00;93064.44;2137527;27;20022;-68
2022/08/13 03:18:35;;;;;;;3.10;2.90;;;;;;;8.66;100.00;93065.31;2137834;27;20026;-69
2022/08/13 03:19:36;;;;;;;5.53;2.95;;;;;;;8.64;100.00;93061.53;2137603;27;20018;-68
2022/08/13 03:20:39;;;;;;;3.35;3.05;;;;;;;8.67;100.00;93074.06;2137633;27;20380;-71
2022/08/13 03:21:45;;;;;;;5.13;3.05;;;;;;;8.67;100.00;93068.72;2137110;27;20060;-68
2022/08/13 03:22:55;;;;;;;3.22;2.95;;;;;;;8.67;100.00;93069.47;2128359;27;20097;-68
2022/08/13 03:23:56;;;;;;;4.65;3.00;;;;;;;8.55;100.00;93070.78;2126248;27;20530;-68
2022/08/13 03:24:57;;;;;;;4.22;3.42;;;;;;;8.60;100.00;93066.91;2137588;27;20022;-68
2022/08/13 03:25:58;;;;;;;4.95;3.03;;;;;;;8.64;100.00;93067.63;2132805;27;20023;-70
2022/08/13 03:27:01;;;;;;;4.20;3.03;;;;;;;8.61;100.00;93073.03;2131873;27;20704;-69
2022/08/13 03:28:02;;;;;;;3.50;3.20;;;;;;;8.55;100.00;93070.03;2131747;27;20520;-73
2022/08/13 03:29:04;;;;;;;3.72;3.10;;;;;;;8.53;100.00;93065.13;2131312;27;20042;-69
2022/08/13 03:30:06;;;;;;;6.47;2.92;;;;;;;8.56;100.00;93071.56;2131750;27;20108;-68
2022/08/13 03:31:07;;;;;;;3.70;3.40;;;;;;;8.58;100.00;93064.66;2131701;27;20041;-69
2022/08/13 03:32:08;;;;;;;6.25;3.33;;;;;;;8.71;100.00;93069.44;2129424;27;20361;-69
2022/08/13 03:33:13;;;;;;;3.53;3.22;;;;;;;8.57;100.00;93070.41;2131802;27;20041;-71
2022/08/13 03:34:17;;;;;;;4.38;3.10;;;;;;;8.57;100.00;93071.16;2131692;27;20475;-70
2022/08/13 03:35:22;;;;;;;9.18;4.10;;;;;;;8.66;100.00;93075.22;2131533;27;20022;-69
2022/08/13 03:36:23;;;;;;;3.50;3.20;;;;;;;8.61;100.00;93073.78;2123552;27;20039;-68
2022/08/13 03:37:25;;;;;;;4.57;3.08;;;;;;;8.61;100.00;93079.09;2130990;27;20057;-69
2022/08/13 03:38:26;;;;;;;3.85;3.42;;;;;;;8.56;100.00;93072.31;2131741;27;20030;-71
2022/08/13 03:39:29;;;;;;;4.68;3.03;;;;;;;8.51;100.00;93078.09;2131882;27;20097;-71
2022/08/13 03:41:00;;;;;;;4.25;2.90;;;;;;;8.38;100.00;93079.78;2131732;27;20034;-68
2022/08/13 03:41:51;;;;;;;6.05;3.40;;;;;;;8.35;100.00;93085.16;2126551;27;20049;-68
2022/08/13 03:42:52;;;;;;;5.85;3.20;;;;;;;8.37;100.00;93082.88;2130811;27;20025;-70
2022/08/13 03:43:54;;;;;;;3.67;3.10;;;;;;;8.36;100.00;93079.44;2131697;27;20922;-69
2022/08/13 03:44:56;;;;;;;5.07;3.65;;;;;;;8.33;100.00;93086.28;2131678;27;20437;-68
2022/08/13 03:45:58;;;;;;;4.03;3.40;;;;;;;8.42;100.00;93077.09;2131764;27;20022;-69
2022/08/13 03:46:59;;;;;;;6.13;3.70;;;;;;;8.31;100.00;93072.63;2131715;27;20031;-71
2022/08/13 03:48:00;;;;;;;3.85;3.42;;;;;;;8.33;100.00;93077.56;2130673;27;20110;-68
2022/08/13 03:49:01;;;;;;;3.63;3.33;;;;;;;8.42;100.00;93077.84;2131649;27;20453;-68
2022/08/13 03:50:06;;;;;;;4.38;3.13;;;;;;;8.41;100.00;93075.59;2131659;27;20022;-72
2022/08/13 03:51:07;;;;;;;4.07;3.50;;;;;;;8.44;100.00;93075.53;2131664;27;20377;-72
2022/08/13 03:52:08;;;;;;;3.55;3.10;;;;;;;8.36;100.00;93070.69;2131612;27;20046;-71
2022/08/13 03:53:09;;;;;;;5.97;3.22;;;;;;;8.33;100.00;93080.22;2127393;27;20485;-70
2022/08/13 03:54:10;;;;;;;5.97;3.40;;;;;;;8.28;100.00;93070.03;2122254;27;20035;-72
2022/08/13 03:55:13;;;;;;;5.78;3.30;;;;;;;8.28;100.00;93072.69;2122236;27;20031;-72
2022/08/13 03:56:15;;;;;;;3.92;3.60;;;;;;;8.16;100.00;93075.88;2131670;27;20014;-71
2022/08/13 03:57:17;;;;;;;3.92;3.53;;;;;;;8.23;100.00;93073.88;2131568;27;20030;-71
2022/08/13 03:58:20;;;;;;;4.95;3.13;;;;;;;8.25;100.00;93082.25;2128995;27;20171;-73
2022/08/13 03:59:21;;;;;;;4.85;3.67;;;;;;;8.32;100.00;93074.13;2131577;27;20046;-70
2022/08/13 04:00:22;;;;;;;4.85;3.33;;;;;;;8.29;100.00;93071.53;2127474;27;20023;-71
2022/08/13 04:01:23;;;;;;;7.05;3.70;;;;;;;8.17;100.00;93074.75;2131556;27;20019;-71
2022/08/13 04:02:24;;;;;;;5.90;3.63;;;;;;;8.23;100.00;93073.13;2131505;27;20031;-73
2022/08/13 04:03:30;;;;;;;6.57;3.35;;;;;;;8.13;100.00;93080.13;2130888;27;20050;-70
2022/08/13 04:04:31;;;;;;;3.60;3.30;;;;;;;8.15;100.00;93083.13;2131592;27;20026;-70
2022/08/13 04:05:32;;;;;;;4.78;3.50;;;;;;;8.13;100.00;93082.03;2131447;27;20079;-71
2022/08/13 04:06:33;;;;;;;5.85;3.80;;;;;;;8.07;100.00;93082.44;2131523;27;20079;-71
2022/08/13 04:07:34;;;;;;;4.50;3.67;;;;;;;8.03;100.00;93081.00;2131630;27;20019;-70
2022/08/13 04:08:37;;;;;;;6.38;3.42;;;;;;;8.13;100.00;93074.03;2130626;27;20471;-71
2022/08/13 04:09:38;;;;;;;4.50;3.40;;;;;;;8.20;100.00;93079.25;2131473;27;20057;-72
2022/08/13 04:10:39;;;;;;;4.38;3.38;;;;;;;8.19;100.00;93080.41;2131537;27;20023;-73
2022/08/13 04:11:41;;;;;;;4.25;3.20;;;;;;;8.15;100.00;93088.44;2131315;27;20409;-72
2022/08/13 04:12:43;;;;;;;5.30;3.05;;;;;;;8.13;100.00;93079.38;2131540;27;20034;-71
2022/08/13 04:13:45;;;;;;;4.65;3.63;;;;;;;7.96;100.00;93081.84;2130571;27;20075;-71
2022/08/13 04:14:47;;;;;;;4.75;4.00;;;;;;;7.96;100.00;93078.44;2131108;27;20121;-70
2022/08/13 04:15:48;;;;;;;5.82;3.53;;;;;;;8.02;100.00;93076.84;2131511;27;20049;-72
2022/08/13 04:16:50;;;;;;;6.70;3.45;;;;;;;8.12;100.00;93081.28;2131481;27;20015;-70
2022/08/13 04:17:51;;;;;;;5.65;3.67;;;;;;;8.13;100.00;93077.47;2127191;27;20050;-71
2022/08/13 04:18:54;;;;;;;5.57;3.75;;;;;;;8.04;100.00;93079.88;2131134;27;20483;-70
2022/08/13 04:19:58;;;;;;;4.72;3.03;;;;;;;8.06;100.00;93077.53;2127822;27;20517;-70
2022/08/13 04:20:59;;;;;;;4.05;3.70;;;;;;;8.05;100.00;93076.78;2131515;27;20114;-71
2022/08/13 04:22:01;;;;;;;9.15;3.80;;;;;;;8.00;100.00;93079.16;2131362;27;20031;-74
2022/08/13 04:23:08;;;;;;;6.40;3.55;;;;;;;8.03;100.00;93081.00;2131294;27;20532;-71
2022/08/13 04:24:11;;;;;;;3.72;3.42;;;;;;;7.99;100.00;93082.94;2131049;27;20045;-70
2022/08/13 04:25:12;;;;;;;4.35;3.95;;;;;;;7.98;100.00;93082.19;2130566;27;20027;-73
2022/08/13 04:26:15;;;;;;;5.88;3.42;;;;;;;7.99;100.00;93075.75;2131457;27;20151;-73
2022/08/13 04:27:16;;;;;;;8.45;4.20;;;;;;;8.07;100.00;93076.38;2131486;27;20030;-70
2022/08/13 04:28:18;;;;;;;5.15;3.97;;;;;;;8.19;100.00;93069.78;2131433;27;20445;-70
2022/08/13 04:29:19;;;;;;;10.15;3.75;;;;;;;8.11;100.00;93073.69;2121913;27;20027;-73
2022/08/13 04:30:20;;;;;;;6.53;3.53;;;;;;;8.07;100.00;93073.72;2121494;27;20027;-71
2022/08/13 04:31:21;;;;;;;6.30;3.42;;;;;;;8.09;100.00;93079.41;2131466;27;20086;-74
2022/08/13 04:32:23;;;;;;;7.28;3.40;;;;;;;8.11;100.00;93076.34;2118130;27;20418;-70
2022/08/13 04:33:25;;;;;;;7.68;4.07;;;;;;;8.07;100.00;93068.38;2122733;27;20015;-70
2022/08/13 04:34:28;;;;;;;10.57;3.88;;;;;;;8.03;100.00;93076.44;2131045;27;20030;-71
2022/08/13 04:35:29;;;;;;;6.03;4.15;;;;;;;8.11;100.00;93073.69;2127915;27;20486;-71
2022/08/13 04:36:30;;;;;;;8.63;4.00;;;;;;;8.08;100.00;93085.91;2131304;27;20078;-74
2022/08/13 04:37:31;;;;;;;4.13;3.70;;;;;;;8.22;100.00;93076.97;2130722;27;20158;-71
2022/08/13 04:38:33;;;;;;;6.85;4.18;;;;;;;8.13;100.00;93077.47;2130910;27;20517;-70
2022/08/13 04:39:34;;;;;;;14.23;4.10;;;;;;;8.05;100.00;93076.78;2131142;27;20376;-72
2022/08/13 04:40:36;;;;;;;4.13;3.70;;;;;;;8.11;100.00;93074.44;2131453;27;20050;-70
2022/08/13 04:41:37;;;;;;;10.07;4.13;;;;;;;8.16;100.00;93073.97;2130241;27;20093;-70
2022/08/13 04:42:53;;;;;;;7.43;4.28;;;;;;;8.18;100.00;93078.91;2131568;27;20026;-71
2022/08/13 04:43:54;;;;;;;8.57;3.90;;;;;;;8.26;100.00;93075.00;2127570;27;20026;-71
2022/08/13 04:44:55;;;;;;;10.95;4.55;;;;;;;8.22;100.00;93071.63;2131038;27;20360;-73
2022/08/13 04:45:58;;;;;;;7.35;3.78;;;;;;;8.25;100.00;93079.59;2130543;27;20018;-70
2022/08/13 04:46:59;;;;;;;5.20;3.67;;;;;;;8.25;100.00;93074.25;2119039;27;20039;-70
2022/08/13 04:48:04;;;;;;;6.88;4.13;;;;;;;8.20;100.00;93073.94;2122497;27;20027;-70
2022/08/13 04:49:06;;;;;;;6.03;3.72;;;;;;;8.21;100.00;93075.44;2131162;27;20031;-71
2022/08/13 04:50:08;;;;;;;6.88;3.80;;;;;;;8.32;100.00;93076.06;2131017;27;20026;-71
2022/08/13 04:51:09;;;;;;;4.97;3.45;;;;;;;8.35;100.00;93075.25;2130361;27;20032;-70
2022/08/13 04:52:10;;;;;;;5.50;3.72;;;;;;;8.21;100.00;93070.88;2131149;27;20499;-70
2022/08/13 04:53:22;;;;;;;5.78;3.95;;;;;;;8.32;100.00;93078.72;2131230;27;20035;-70
2022/08/13 04:54:22;;;;;;;4.53;3.83;;;;;;;8.18;100.00;93078.91;2127127;27;20087;-70
2022/08/13 04:55:24;;;;;;;5.78;3.63;;;;;;;8.33;100.00;93075.66;2130843;27;20018;-70
2022/08/13 04:56:25;;;;;;;10.93;4.13;;;;;;;8.43;100.00;93076.69;2130339;27;20345;-73
2022/08/13 04:57:26;;;;;;;6.43;3.83;;;;;;;8.33;100.00;93070.31;2131146;27;20022;-70
2022/08/13 04:58:32;;;;;;;4.45;3.55;;;;;;;8.42;100.00;93077.09;2131100;27;20019;-72
2022/08/13 04:59:33;;;;;;;5.50;3.97;;;;;;;8.49;100.00;93079.66;2131120;27;20049;-72
2022/08/13 05:00:34;;;;;;;7.75;3.72;;;;;;;8.48;100.00;93072.81;2130863;27;20027;-71
2022/08/13 05:01:35;;;;;;;6.97;4.05;;;;;;;8.48;100.00;93070.91;2131064;27;20029;-72
2022/08/13 05:02:40;;;;;;;7.25;3.97;;;;;;;8.56;100.00;93069.66;2130205;27;20109;-71
2022/08/13 05:03:43;;;;;;;4.03;3.63;;;;;;;8.62;100.00;93069.94;2121795;27;20699;-71
2022/08/13 05:04:44;;;;;;;6.10;3.72;;;;;;;8.62;100.00;93071.84;2122450;27;20110;-71